Time;durP1;ratioP1;P1;durP2;ratioP2;P2;SDS_P1;SDS_P2;PMS_P1;PMS_P2;Temp;Humidity;BMP_temperature;BMP_pressure;BME280_temperature;BME280_humidity;BME280_pressure;Samples;Min_cycle;Max_cycle;Signal;HPM_P1;HPM_P2
2023/10/04 00:00:44;;;;;;;0.75;0.68;;;;;;;;;;5001510;28;60407;-67
2023/10/04 00:03:09;;;;;;;0.57;0.43;;;;;;;;;;5001424;28;59178;-68
2023/10/04 00:05:36;;;;;;;0.57;0.50;;;;;;;;;;5002959;28;58439;-68
2023/10/04 00:08:02;;;;;;;0.80;0.30;;;;;;;;;;5000952;28;60514;-68
2023/10/04 00:10:27;;;;;;;0.47;0.43;;;;;;;;;;5000299;28;58751;-68
2023/10/04 00:12:53;;;;;;;0.97;0.30;;;;;;;;;;5000546;28;58601;-68
2023/10/04 00:15:20;;;;;;;0.65;0.30;;;;;;;;;;5001099;28;59793;-69
2023/10/04 00:17:45;;;;;;;0.40;0.40;;;;;;;;;;5001005;28;58389;-68
2023/10/04 00:20:13;;;;;;;0.40;0.30;;;;;;;;;;4999207;28;59456;-68
2023/10/04 00:22:39;;;;;;;0.83;0.40;;;;;;;;;;5000722;28;59755;-69
2023/10/04 00:25:05;;;;;;;0.73;0.50;;;;;;;;;;5001127;28;58466;-68
2023/10/04 00:27:30;;;;;;;0.30;0.30;;;;;;;;;;5002219;28;58510;-69
2023/10/04 00:29:56;;;;;;;0.88;0.40;;;;;;;;;;5001059;28;58878;-69
2023/10/04 00:32:21;;;;;;;0.27;0.20;;;;;;;;;;5004021;28;58359;-69
2023/10/04 00:34:46;;;;;;;0.43;0.30;;;;;;;;;;5000725;28;58453;-69
2023/10/04 00:37:11;;;;;;;0.63;0.40;;;;;;;;;;5001677;28;58599;-68
2023/10/04 00:39:36;;;;;;;0.67;0.63;;;;;;;;;;5001844;28;61115;-68
2023/10/04 00:42:03;;;;;;;0.30;0.27;;;;;;;;;;5001351;28;58700;-68
2023/10/04 00:44:29;;;;;;;0.25;0.25;;;;;;;;;;5001448;28;58476;-67
2023/10/04 00:46:55;;;;;;;0.70;0.50;;;;;;;;;;4994469;28;58647;-68
2023/10/04 00:49:20;;;;;;;1.15;0.30;;;;;;;;;;4999895;28;58985;-67
2023/10/04 00:51:46;;;;;;;0.50;0.47;;;;;;;;;;5001458;28;58610;-68
2023/10/04 00:54:11;;;;;;;0.63;0.50;;;;;;;;;;5000799;28;58780;-68
2023/10/04 00:56:38;;;;;;;0.55;0.40;;;;;;;;;;5002018;28;59426;-68
2023/10/04 00:59:03;;;;;;;0.50;0.20;;;;;;;;;;4999175;28;59448;-68
2023/10/04 01:01:29;;;;;;;0.38;0.35;;;;;;;;;;5000145;28;58493;-68
2023/10/04 01:03:55;;;;;;;1.35;0.98;;;;;;;;;;4999776;28;58403;-68
2023/10/04 01:06:20;;;;;;;0.43;0.30;;;;;;;;;;5000325;28;59318;-67
2023/10/04 01:08:47;;;;;;;0.50;0.40;;;;;;;;;;4998749;28;59331;-67
2023/10/04 01:11:12;;;;;;;0.52;0.30;;;;;;;;;;5002882;28;58450;-67
2023/10/04 01:13:38;;;;;;;0.80;0.65;;;;;;;;;;4998957;28;59542;-68
2023/10/04 01:16:08;;;;;;;0.82;0.40;;;;;;;;;;4998835;28;58576;-68
2023/10/04 01:18:34;;;;;;;0.45;0.28;;;;;;;;;;5001700;28;59501;-68
2023/10/04 01:20:59;;;;;;;0.23;0.17;;;;;;;;;;4999200;28;59713;-68
2023/10/04 01:23:24;;;;;;;0.30;0.30;;;;;;;;;;5004742;28;58377;-68
2023/10/04 01:25:49;;;;;;;0.57;0.43;;;;;;;;;;5004343;28;60461;-68
2023/10/04 01:28:26;;;;;;;0.40;0.30;;;;;;;;;;5002330;28;58705;-68
2023/10/04 01:30:51;;;;;;;0.30;0.30;;;;;;;;;;5004022;28;58429;-68
2023/10/04 01:33:20;;;;;;;0.70;0.45;;;;;;;;;;5004888;28;59177;-66
2023/10/04 01:35:48;;;;;;;0.57;0.57;;;;;;;;;;5001987;28;58873;-67
2023/10/04 01:38:14;;;;;;;0.47;0.40;;;;;;;;;;5004451;28;58473;-66
2023/10/04 01:40:40;;;;;;;0.20;0.20;;;;;;;;;;5005452;28;60358;-67
2023/10/04 01:43:15;;;;;;;0.30;0.30;;;;;;;;;;5005047;28;58542;-67
2023/10/04 01:45:43;;;;;;;0.52;0.30;;;;;;;;;;5004611;28;60216;-67
2023/10/04 01:48:08;;;;;;;0.30;0.30;;;;;;;;;;5003613;28;59084;-67
2023/10/04 01:50:33;;;;;;;0.35;0.35;;;;;;;;;;5005007;28;58471;-67
2023/10/04 01:52:58;;;;;;;0.40;0.40;;;;;;;;;;5001515;28;58362;-67
2023/10/04 01:55:23;;;;;;;0.50;0.40;;;;;;;;;;5004724;28;58592;-66
2023/10/04 01:57:49;;;;;;;0.38;0.38;;;;;;;;;;5003469;28;58498;-66
2023/10/04 02:00:18;;;;;;;0.32;0.30;;;;;;;;;;5005256;28;59134;-67
2023/10/04 02:02:44;;;;;;;0.30;0.30;;;;;;;;;;5003140;28;59292;-67
2023/10/04 02:05:18;;;;;;;0.35;0.28;;;;;;;;;;5002547;28;65601;-67
2023/10/04 02:07:47;;;;;;;1.05;0.55;;;;;;;;;;5001720;28;59243;-66
2023/10/04 02:10:13;;;;;;;0.60;0.40;;;;;;;;;;5002185;28;58386;-67
2023/10/04 02:12:38;;;;;;;0.43;0.35;;;;;;;;;;5003657;28;59541;-67
2023/10/04 02:15:06;;;;;;;0.43;0.32;;;;;;;;;;5002323;28;59897;-67
2023/10/04 02:17:31;;;;;;;;;;;;;;;;;;5004961;28;58431;-67
2023/10/04 02:19:57;;;;;;;0.98;0.63;;;;;;;;;;5002814;28;59378;-67
2023/10/04 02:22:23;;;;;;;0.53;0.53;;;;;;;;;;5004251;28;58839;-67
2023/10/04 02:24:48;;;;;;;0.38;0.20;;;;;;;;;;5004154;28;58412;-67
2023/10/04 02:27:18;;;;;;;0.37;0.30;;;;;;;;;;5003713;28;60522;-66
2023/10/04 02:29:45;;;;;;;0.50;0.40;;;;;;;;;;5005051;28;58331;-67
2023/10/04 02:32:10;;;;;;;0.47;0.30;;;;;;;;;;5000385;28;65181;-66
2023/10/04 02:34:36;;;;;;;0.17;0.10;;;;;;;;;;4999008;28;59861;-67
2023/10/04 02:37:01;;;;;;;0.50;0.47;;;;;;;;;;5000545;28;58591;-66
2023/10/04 02:39:27;;;;;;;0.40;0.30;;;;;;;;;;5002267;28;59511;-67
2023/10/04 02:41:53;;;;;;;0.45;0.30;;;;;;;;;;5002481;28;58545;-66
2023/10/04 02:44:18;;;;;;;0.30;0.25;;;;;;;;;;5003720;28;58467;-66
2023/10/04 02:46:44;;;;;;;1.03;0.30;;;;;;;;;;5001665;28;59357;-67
2023/10/04 02:49:09;;;;;;;0.32;0.30;;;;;;;;;;5002597;28;58391;-66
2023/10/04 02:51:34;;;;;;;0.40;0.40;;;;;;;;;;5002585;28;60457;-67
2023/10/04 02:54:00;;;;;;;0.70;0.20;;;;;;;;;;5003004;28;58706;-66
2023/10/04 02:56:25;;;;;;;0.43;0.40;;;;;;;;;;5003859;28;58413;-67
2023/10/04 02:58:50;;;;;;;0.30;0.22;;;;;;;;;;5003778;28;59388;-67
2023/10/04 03:01:26;;;;;;;0.50;0.50;;;;;;;;;;5001376;28;58379;-67
2023/10/04 03:03:51;;;;;;;0.40;0.30;;;;;;;;;;5001242;28;58430;-66
2023/10/04 03:06:17;;;;;;;0.50;0.47;;;;;;;;;;5002752;28;58690;-66
2023/10/04 03:08:43;;;;;;;0.37;0.23;;;;;;;;;;5002011;28;58661;-66
2023/10/04 03:11:08;;;;;;;0.10;0.10;;;;;;;;;;5002171;28;60203;-67
2023/10/04 03:13:34;;;;;;;0.97;0.40;;;;;;;;;;5001144;28;60118;-67
2023/10/04 03:16:00;;;;;;;0.45;0.40;;;;;;;;;;5002842;28;58555;-67
2023/10/04 03:18:25;;;;;;;0.47;0.47;;;;;;;;;;5003080;28;58595;-67
2023/10/04 03:20:56;;;;;;;0.28;0.28;;;;;;;;;;5002293;28;58513;-67
2023/10/04 03:23:25;;;;;;;0.10;0.10;;;;;;;;;;5003850;28;58518;-67
2023/10/04 03:25:55;;;;;;;0.40;0.40;;;;;;;;;;4999648;28;59005;-67
2023/10/04 03:28:22;;;;;;;0.40;0.30;;;;;;;;;;5002813;28;58576;-66
2023/10/04 03:30:47;;;;;;;0.52;0.20;;;;;;;;;;5000525;28;60614;-67
2023/10/04 03:33:12;;;;;;;0.25;0.20;;;;;;;;;;5001259;28;58607;-67
2023/10/04 03:35:39;;;;;;;0.73;0.65;;;;;;;;;;5002536;28;58477;-67
2023/10/04 03:38:05;;;;;;;0.52;0.20;;;;;;;;;;5002411;28;60452;-67
2023/10/04 03:40:38;;;;;;;0.47;0.35;;;;;;;;;;5001988;28;59890;-67
2023/10/04 03:43:06;;;;;;;0.73;0.40;;;;;;;;;;5001448;28;58405;-67
2023/10/04 03:45:32;;;;;;;0.32;0.30;;;;;;;;;;5001779;28;60677;-67
2023/10/04 03:47:57;;;;;;;0.20;0.20;;;;;;;;;;5001058;28;58928;-66
2023/10/04 03:50:24;;;;;;;0.50;0.30;;;;;;;;;;5004570;28;58481;-66
2023/10/04 03:52:51;;;;;;;0.28;0.20;;;;;;;;;;5001605;28;58447;-67
2023/10/04 03:55:17;;;;;;;0.25;0.25;;;;;;;;;;5002825;28;58516;-68
2023/10/04 03:57:42;;;;;;;0.32;0.32;;;;;;;;;;5002428;28;58523;-68
2023/10/04 04:00:12;;;;;;;0.35;0.35;;;;;;;;;;5001334;28;59114;-67
2023/10/04 04:02:38;;;;;;;0.70;0.20;;;;;;;;;;5002708;28;58433;-68
2023/10/04 04:05:11;;;;;;;0.45;0.30;;;;;;;;;;5002167;28;60324;-68
2023/10/04 04:07:36;;;;;;;0.20;0.20;;;;;;;;;;5002407;28;58933;-67
2023/10/04 04:10:07;;;;;;;0.50;0.40;;;;;;;;;;5001510;28;58614;-67
2023/10/04 04:12:34;;;;;;;0.38;0.20;;;;;;;;;;5002979;28;59702;-67
2023/10/04 04:14:59;;;;;;;0.13;0.13;;;;;;;;;;5001373;28;58700;-67
2023/10/04 04:17:24;;;;;;;1.40;0.65;;;;;;;;;;5001275;28;59508;-68
2023/10/04 04:19:50;;;;;;;0.40;0.20;;;;;;;;;;5003153;28;58531;-67
2023/10/04 04:22:23;;;;;;;0.40;0.40;;;;;;;;;;5003594;28;58437;-67
2023/10/04 04:24:49;;;;;;;0.70;0.30;;;;;;;;;;5000522;28;60724;-68
2023/10/04 04:27:18;;;;;;;0.43;0.43;;;;;;;;;;5002213;28;58758;-68
2023/10/04 04:29:44;;;;;;;0.40;0.20;;;;;;;;;;5003081;28;58453;-67
2023/10/04 04:32:09;;;;;;;0.30;0.25;;;;;;;;;;5000974;28;58506;-68
2023/10/04 04:34:35;;;;;;;0.35;0.35;;;;;;;;;;4999388;28;60289;-68
2023/10/04 04:37:00;;;;;;;0.30;0.20;;;;;;;;;;4998636;28;59246;-68
2023/10/04 04:39:28;;;;;;;0.57;0.40;;;;;;;;;;4997591;28;58505;-68
2023/10/04 04:41:53;;;;;;;0.60;0.50;;;;;;;;;;5000125;28;58623;-68
2023/10/04 04:44:23;;;;;;;0.47;0.20;;;;;;;;;;4997513;28;59553;-68
2023/10/04 04:46:48;;;;;;;0.90;0.63;;;;;;;;;;4997745;28;59874;-67
2023/10/04 04:49:13;;;;;;;1.07;0.60;;;;;;;;;;5000868;28;58473;-66
2023/10/04 04:51:39;;;;;;;2.47;0.50;;;;;;;;;;4999624;28;59303;-66
2023/10/04 04:54:05;;;;;;;1.88;0.70;;;;;;;;;;4997015;28;58803;-67
2023/10/04 04:56:31;;;;;;;8.95;1.10;;;;;;;;;;5002141;28;58440;-67
2023/10/04 04:58:56;;;;;;;2.83;0.67;;;;;;;;;;5000659;28;59869;-67
2023/10/04 05:01:21;;;;;;;0.67;0.60;;;;;;;;;;5003628;28;58367;-67
2023/10/04 05:03:49;;;;;;;2.27;0.70;;;;;;;;;;5004930;28;60319;-67
2023/10/04 05:06:20;;;;;;;2.28;0.63;;;;;;;;;;4999877;28;59030;-67
2023/10/04 05:08:45;;;;;;;4.43;0.43;;;;;;;;;;5000936;28;58442;-67
2023/10/04 05:11:11;;;;;;;2.97;0.70;;;;;;;;;;5003827;28;60520;-67
2023/10/04 05:13:36;;;;;;;2.00;0.73;;;;;;;;;;5003856;28;60828;-67
2023/10/04 05:16:02;;;;;;;2.08;0.63;;;;;;;;;;5004647;28;58509;-67
2023/10/04 05:18:27;;;;;;;1.30;0.85;;;;;;;;;;5003350;28;59448;-67
2023/10/04 05:20:55;;;;;;;1.25;0.95;;;;;;;;;;5005713;28;58314;-67
2023/10/04 05:23:21;;;;;;;0.55;0.43;;;;;;;;;;5005593;28;59277;-67
2023/10/04 05:25:47;;;;;;;1.75;0.65;;;;;;;;;;5004294;28;58873;-67
2023/10/04 05:28:12;;;;;;;2.50;0.70;;;;;;;;;;5003567;28;58465;-67
2023/10/04 05:30:38;;;;;;;1.57;1.37;;;;;;;;;;5005750;28;59488;-67
2023/10/04 05:33:04;;;;;;;2.83;0.95;;;;;;;;;;5003224;28;60108;-67
2023/10/04 05:35:29;;;;;;;2.47;1.17;;;;;;;;;;5003767;28;58887;-68
2023/10/04 05:37:55;;;;;;;2.30;0.90;;;;;;;;;;5004562;28;59494;-67
2023/10/04 05:40:25;;;;;;;1.50;0.63;;;;;;;;;;5005396;28;58497;-68
2023/10/04 05:42:54;;;;;;;1.70;0.47;;;;;;;;;;5004697;28;59383;-67
2023/10/04 05:45:23;;;;;;;0.70;0.52;;;;;;;;;;5003108;28;59090;-67
2023/10/04 05:47:50;;;;;;;1.95;1.13;;;;;;;;;;5003464;28;58410;-67
2023/10/04 05:50:18;;;;;;;1.75;0.43;;;;;;;;;;5004210;28;60513;-67
2023/10/04 05:52:47;;;;;;;1.42;0.88;;;;;;;;;;5002905;28;58623;-67
2023/10/04 05:55:13;;;;;;;2.05;0.85;;;;;;;;;;5005044;28;58291;-67
2023/10/04 05:57:38;;;;;;;2.67;1.13;;;;;;;;;;5004092;28;59515;-67
2023/10/04 06:00:21;;;;;;;2.67;1.00;;;;;;;;;;5004453;28;59197;-67
2023/10/04 06:02:47;;;;;;;1.38;0.82;;;;;;;;;;5003651;28;59479;-67
2023/10/04 06:05:14;;;;;;;1.20;0.77;;;;;;;;;;5004854;28;58807;-67
2023/10/04 06:07:39;;;;;;;0.50;0.40;;;;;;;;;;5003280;28;58490;-67
2023/10/04 06:10:04;;;;;;;3.03;1.00;;;;;;;;;;5002800;28;60018;-67
2023/10/04 06:12:29;;;;;;;1.83;0.97;;;;;;;;;;5004150;28;60089;-67
2023/10/04 06:14:55;;;;;;;1.80;0.87;;;;;;;;;;5003396;28;58398;-67
2023/10/04 06:17:20;;;;;;;0.97;0.67;;;;;;;;;;5004295;28;58651;-66
2023/10/04 06:19:45;;;;;;;1.58;0.45;;;;;;;;;;5002778;28;60040;-66
2023/10/04 06:22:11;;;;;;;2.20;1.30;;;;;;;;;;5003387;28;58631;-66
2023/10/04 06:24:37;;;;;;;1.05;0.68;;;;;;;;;;5005340;28;59821;-66
2023/10/04 06:27:02;;;;;;;2.10;1.05;;;;;;;;;;5003582;28;58580;-66
2023/10/04 06:29:27;;;;;;;3.73;0.87;;;;;;;;;;5004067;28;59037;-66
2023/10/04 06:31:52;;;;;;;1.40;0.82;;;;;;;;;;5002331;28;58800;-66
2023/10/04 06:34:17;;;;;;;1.50;0.45;;;;;;;;;;5004769;28;58554;-66
2023/10/04 06:36:44;;;;;;;1.13;0.70;;;;;;;;;;5003353;28;60083;-66
2023/10/04 06:39:12;;;;;;;1.10;0.85;;;;;;;;;;5003412;28;59791;-66
2023/10/04 06:41:37;;;;;;;0.60;0.45;;;;;;;;;;5004054;28;58465;-66
2023/10/04 06:44:02;;;;;;;1.27;1.13;;;;;;;;;;5003208;28;58509;-66
2023/10/04 06:46:27;;;;;;;1.17;0.53;;;;;;;;;;5002708;28;58358;-66
2023/10/04 06:48:52;;;;;;;1.07;0.60;;;;;;;;;;5004958;28;59429;-66
2023/10/04 06:51:17;;;;;;;1.53;0.97;;;;;;;;;;5003534;28;58404;-66
2023/10/04 06:53:43;;;;;;;1.10;0.40;;;;;;;;;;5004486;28;58475;-66
2023/10/04 06:56:09;;;;;;;0.45;0.45;;;;;;;;;;5003225;28;60296;-66
2023/10/04 06:58:34;;;;;;;3.30;0.85;;;;;;;;;;5003061;28;58468;-66
2023/10/04 07:01:00;;;;;;;1.73;0.60;;;;;;;;;;5003074;28;58398;-67
2023/10/04 07:03:27;;;;;;;4.95;0.88;;;;;;;;;;5002903;28;60302;-66
2023/10/04 07:05:52;;;;;;;2.03;1.00;;;;;;;;;;5002502;28;58116;-66
2023/10/04 07:08:17;;;;;;;1.07;0.57;;;;;;;;;;5003794;28;59415;-66
2023/10/04 07:10:44;;;;;;;3.45;1.65;;;;;;;;;;5001592;28;59162;-66
2023/10/04 07:13:09;;;;;;;1.40;0.82;;;;;;;;;;5002285;28;58394;-66
2023/10/04 07:15:41;;;;;;;0.73;0.63;;;;;;;;;;5002650;28;58740;-66
2023/10/04 07:18:07;;;;;;;2.63;0.40;;;;;;;;;;5001080;28;58385;-66
2023/10/04 07:20:33;;;;;;;0.77;0.70;;;;;;;;;;5003092;28;58467;-66
2023/10/04 07:22:59;;;;;;;1.83;1.02;;;;;;;;;;5003092;28;59930;-67
2023/10/04 07:25:28;;;;;;;0.77;0.63;;;;;;;;;;5002833;28;59291;-67
2023/10/04 07:27:54;;;;;;;1.48;0.95;;;;;;;;;;5002513;28;59443;-66
2023/10/04 07:30:19;;;;;;;0.60;0.57;;;;;;;;;;5002105;28;58691;-67
2023/10/04 07:32:46;;;;;;;1.03;0.60;;;;;;;;;;5004732;28;58496;-67
2023/10/04 07:35:13;;;;;;;0.98;0.85;;;;;;;;;;5001309;28;64093;-67
2023/10/04 07:37:42;;;;;;;2.17;0.68;;;;;;;;;;5000760;28;59370;-66
2023/10/04 07:40:13;;;;;;;1.10;0.65;;;;;;;;;;5002385;28;58494;-67
2023/10/04 07:42:38;;;;;;;1.38;0.50;;;;;;;;;;5002835;28;59721;-67
2023/10/04 07:45:04;;;;;;;0.77;0.60;;;;;;;;;;5000342;28;58577;-66
2023/10/04 07:47:29;;;;;;;0.55;0.50;;;;;;;;;;5003848;28;58521;-67
2023/10/04 07:49:54;;;;;;;4.45;1.17;;;;;;;;;;5001618;28;58659;-67
2023/10/04 07:52:19;;;;;;;0.77;0.60;;;;;;;;;;5003452;28;58517;-66
2023/10/04 07:54:44;;;;;;;0.70;0.60;;;;;;;;;;5001955;28;60224;-66
2023/10/04 07:57:09;;;;;;;1.13;0.63;;;;;;;;;;5000299;28;58553;-67
2023/10/04 07:59:36;;;;;;;1.80;1.10;;;;;;;;;;5003958;28;58515;-67
2023/10/04 08:02:01;;;;;;;0.95;0.70;;;;;;;;;;5003226;28;58764;-66
2023/10/04 08:04:26;;;;;;;0.95;0.52;;;;;;;;;;5003543;28;58476;-67
2023/10/04 08:06:52;;;;;;;1.30;0.63;;;;;;;;;;5001756;28;58512;-66
2023/10/04 08:09:17;;;;;;;1.47;0.73;;;;;;;;;;5003289;28;58453;-67
2023/10/04 08:11:42;;;;;;;0.90;0.70;;;;;;;;;;5004876;28;58303;-66
2023/10/04 08:14:07;;;;;;;1.45;0.77;;;;;;;;;;5002907;28;60083;-67
2023/10/04 08:16:33;;;;;;;0.63;0.30;;;;;;;;;;4999877;28;58846;-67
2023/10/04 08:18:59;;;;;;;0.95;0.75;;;;;;;;;;5001695;28;58459;-67
2023/10/04 08:21:24;;;;;;;0.90;0.80;;;;;;;;;;5003100;28;58628;-67
2023/10/04 08:23:49;;;;;;;0.80;0.50;;;;;;;;;;5000986;28;59592;-67
2023/10/04 08:26:15;;;;;;;0.70;0.68;;;;;;;;;;5004016;28;58519;-67
2023/10/04 08:28:42;;;;;;;2.00;0.90;;;;;;;;;;5002247;28;59323;-67
2023/10/04 08:31:08;;;;;;;1.42;0.68;;;;;;;;;;5002130;28;59870;-67
2023/10/04 08:33:33;;;;;;;1.02;0.70;;;;;;;;;;5001969;28;58408;-66
2023/10/04 08:35:59;;;;;;;2.47;1.10;;;;;;;;;;5000894;28;59721;-66
2023/10/04 08:38:25;;;;;;;0.87;0.87;;;;;;;;;;5000684;28;58490;-68
2023/10/04 08:40:50;;;;;;;1.67;0.88;;;;;;;;;;5002360;28;59059;-68
2023/10/04 08:43:17;;;;;;;1.67;0.83;;;;;;;;;;5002829;28;58555;-66
2023/10/04 08:45:43;;;;;;;0.73;0.73;;;;;;;;;;5002067;28;58489;-66
2023/10/04 08:48:09;;;;;;;1.30;0.63;;;;;;;;;;5000981;28;59612;-66
2023/10/04 08:50:40;;;;;;;0.85;0.82;;;;;;;;;;5003226;28;58497;-66
2023/10/04 08:53:24;;;;;;;1.05;0.77;;;;;;;;;;5002360;28;58600;-66
2023/10/04 08:55:53;;;;;;;0.95;0.35;;;;;;;;;;5000584;28;59319;-67
2023/10/04 08:58:19;;;;;;;1.10;0.70;;;;;;;;;;5002048;28;58308;-66
2023/10/04 09:00:44;;;;;;;0.60;0.60;;;;;;;;;;5000504;28;62001;-66
2023/10/04 09:03:12;;;;;;;0.82;0.57;;;;;;;;;;5000584;28;58970;-67
2023/10/04 09:05:37;;;;;;;2.42;1.27;;;;;;;;;;4999319;28;58499;-67
2023/10/04 09:08:04;;;;;;;1.83;0.57;;;;;;;;;;5000361;28;61686;-67
2023/10/04 09:10:30;;;;;;;0.63;0.40;;;;;;;;;;5001233;28;59060;-67
2023/10/04 09:12:55;;;;;;;0.80;0.75;;;;;;;;;;5002277;28;58350;-66
2023/10/04 09:15:21;;;;;;;1.57;0.43;;;;;;;;;;5000509;28;58587;-66
2023/10/04 09:17:47;;;;;;;1.98;0.88;;;;;;;;;;5001405;28;58426;-66
2023/10/04 09:20:15;;;;;;;1.35;0.85;;;;;;;;;;5002476;28;60319;-66
2023/10/04 09:22:40;;;;;;;2.72;1.00;;;;;;;;;;5002178;28;59311;-66
2023/10/04 09:25:05;;;;;;;1.43;0.87;;;;;;;;;;5002283;28;58587;-67
2023/10/04 09:27:30;;;;;;;3.30;1.47;;;;;;;;;;5000676;28;59763;-67
2023/10/04 09:29:57;;;;;;;3.40;0.93;;;;;;;;;;5000015;28;58579;-66
2023/10/04 09:32:35;;;;;;;0.68;0.43;;;;;;;;;;5002621;28;58340;-67
2023/10/04 09:35:00;;;;;;;1.00;0.70;;;;;;;;;;5000172;28;59842;-66
2023/10/04 09:37:26;;;;;;;0.90;0.67;;;;;;;;;;5001997;28;58544;-66
2023/10/04 09:40:08;;;;;;;1.10;1.00;;;;;;;;;;5001495;28;58481;-66
2023/10/04 09:42:51;;;;;;;1.20;1.05;;;;;;;;;;5000848;28;60153;-67
2023/10/04 09:45:16;;;;;;;0.60;0.52;;;;;;;;;;5002459;28;58530;-66
2023/10/04 09:47:42;;;;;;;1.20;0.83;;;;;;;;;;5004682;28;58767;-67
2023/10/04 09:50:12;;;;;;;1.33;0.80;;;;;;;;;;5004299;28;59021;-67
2023/10/04 09:52:40;;;;;;;1.30;0.93;;;;;;;;;;5004309;28;58401;-67
2023/10/04 09:55:08;;;;;;;1.55;0.85;;;;;;;;;;5003649;28;59417;-67
2023/10/04 09:57:35;;;;;;;1.55;0.85;;;;;;;;;;5005254;28;58870;-67
2023/10/04 10:00:01;;;;;;;0.73;0.52;;;;;;;;;;5002291;28;60033;-67
2023/10/04 10:02:29;;;;;;;1.30;0.90;;;;;;;;;;5004367;28;60575;-67
2023/10/04 10:04:54;;;;;;;0.98;0.70;;;;;;;;;;5002939;28;58506;-67
2023/10/04 10:07:21;;;;;;;1.88;0.80;;;;;;;;;;5004843;28;60303;-67
2023/10/04 10:09:51;;;;;;;1.00;0.60;;;;;;;;;;5002874;28;58410;-67
2023/10/04 10:12:16;;;;;;;1.02;0.85;;;;;;;;;;5004118;28;58538;-67
2023/10/04 10:14:42;;;;;;;0.82;0.70;;;;;;;;;;5005322;28;60164;-67
2023/10/04 10:17:10;;;;;;;0.98;0.95;;;;;;;;;;5001840;28;59601;-67
2023/10/04 10:19:35;;;;;;;0.83;0.43;;;;;;;;;;5005184;28;58385;-67
2023/10/04 10:22:05;;;;;;;1.30;0.80;;;;;;;;;;5003295;28;59752;-67
2023/10/04 10:24:30;;;;;;;2.17;0.90;;;;;;;;;;5005233;28;58405;-67
2023/10/04 10:27:02;;;;;;;2.93;0.90;;;;;;;;;;5003716;28;60014;-66
2023/10/04 10:29:29;;;;;;;1.02;0.68;;;;;;;;;;5003804;28;59815;-67
2023/10/04 10:31:54;;;;;;;1.67;1.25;;;;;;;;;;5003662;28;58505;-67
2023/10/04 10:34:20;;;;;;;2.15;0.82;;;;;;;;;;5003186;28;59757;-67
2023/10/04 10:36:51;;;;;;;1.27;0.83;;;;;;;;;;5002364;28;58562;-67
2023/10/04 10:39:20;;;;;;;1.25;1.15;;;;;;;;;;5002726;28;58439;-67
2023/10/04 10:41:51;;;;;;;0.98;0.80;;;;;;;;;;5005155;28;60525;-68
2023/10/04 10:44:19;;;;;;;2.65;1.08;;;;;;;;;;5003638;28;58406;-67
2023/10/04 10:47:07;;;;;;;0.80;0.80;;;;;;;;;;5003506;28;59653;-67
2023/10/04 10:49:32;;;;;;;;;;;;;;;;;;5001561;28;59342;-67
2023/10/04 10:51:57;;;;;;;1.10;1.00;;;;;;;;;;5004305;28;58449;-67
2023/10/04 10:54:23;;;;;;;2.40;0.80;;;;;;;;;;5004133;28;59712;-66
2023/10/04 10:56:48;;;;;;;0.82;0.65;;;;;;;;;;5002754;28;58625;-67
2023/10/04 10:59:13;;;;;;;1.63;0.90;;;;;;;;;;5003861;28;58563;-66
2023/10/04 11:01:38;;;;;;;1.15;0.73;;;;;;;;;;5003273;28;59882;-66
2023/10/04 11:04:04;;;;;;;0.95;0.73;;;;;;;;;;5003887;28;58589;-66
2023/10/04 11:06:29;;;;;;;1.17;1.08;;;;;;;;;;5003947;28;59356;-66
2023/10/04 11:08:55;;;;;;;1.00;0.60;;;;;;;;;;5002949;28;58843;-66
2023/10/04 11:11:20;;;;;;;1.10;1.00;;;;;;;;;;5004832;28;58739;-66
2023/10/04 11:13:46;;;;;;;1.23;0.70;;;;;;;;;;5002855;28;58563;-68
2023/10/04 11:16:12;;;;;;;1.35;0.77;;;;;;;;;;5002100;28;60696;-67
2023/10/04 11:18:38;;;;;;;1.00;0.80;;;;;;;;;;5002590;28;58390;-66
2023/10/04 11:21:04;;;;;;;1.58;1.15;;;;;;;;;;5003817;28;60011;-66
2023/10/04 11:23:30;;;;;;;1.38;0.75;;;;;;;;;;5004685;28;58945;-67
2023/10/04 11:25:58;;;;;;;0.98;0.75;;;;;;;;;;5002269;28;60480;-66
2023/10/04 11:28:23;;;;;;;0.93;0.52;;;;;;;;;;5001093;28;59955;-67
2023/10/04 11:30:49;;;;;;;1.40;1.00;;;;;;;;;;5001759;28;58638;-66
2023/10/04 11:33:14;;;;;;;1.33;0.85;;;;;;;;;;5003058;28;59912;-66
2023/10/04 11:35:43;;;;;;;1.20;0.90;;;;;;;;;;5004021;28;58319;-66
2023/10/04 11:38:15;;;;;;;0.98;0.85;;;;;;;;;;5003438;28;58554;-65
2023/10/04 11:40:44;;;;;;;1.42;0.73;;;;;;;;;;5001404;28;60622;-66
2023/10/04 11:43:09;;;;;;;1.75;0.80;;;;;;;;;;5001321;28;58500;-67
2023/10/04 11:45:34;;;;;;;2.17;1.15;;;;;;;;;;5004304;28;58442;-66
2023/10/04 11:48:05;;;;;;;1.52;1.00;;;;;;;;;;4999815;28;59351;-67
2023/10/04 11:50:43;;;;;;;1.05;0.70;;;;;;;;;;5004172;28;58412;-66
2023/10/04 11:53:09;;;;;;;1.80;1.20;;;;;;;;;;5000061;28;59365;-67
2023/10/04 11:55:37;;;;;;;0.82;0.80;;;;;;;;;;4998795;28;58907;-68
2023/10/04 11:58:04;;;;;;;;;;;;;;;;;;5002295;28;58644;-68
2023/10/04 12:00:29;;;;;;;2.60;0.73;;;;;;;;;;5001457;28;60450;-67
2023/10/04 12:02:54;;;;;;;2.07;1.03;;;;;;;;;;5001332;28;59686;-68
2023/10/04 12:05:20;;;;;;;1.40;0.93;;;;;;;;;;5002177;28;58423;-69
2023/10/04 12:07:45;;;;;;;1.17;0.80;;;;;;;;;;5000109;28;59453;-69
2023/10/04 12:10:13;;;;;;;1.50;1.20;;;;;;;;;;4998867;28;58484;-67
2023/10/04 12:12:38;;;;;;;1.48;1.08;;;;;;;;;;5003009;28;58608;-67
2023/10/04 12:15:07;;;;;;;1.20;0.90;;;;;;;;;;5001319;28;58652;-67
2023/10/04 12:17:34;;;;;;;1.27;1.17;;;;;;;;;;4999835;28;58594;-67
2023/10/04 12:19:59;;;;;;;0.90;0.70;;;;;;;;;;5000311;28;60698;-66
2023/10/04 12:22:24;;;;;;;1.23;0.80;;;;;;;;;;5000517;28;59623;-66
2023/10/04 12:24:50;;;;;;;2.17;1.00;;;;;;;;;;5001086;28;58704;-68
2023/10/04 12:27:18;;;;;;;1.88;0.90;;;;;;;;;;5000902;28;59486;-68
2023/10/04 12:29:43;;;;;;;2.00;0.80;;;;;;;;;;5002206;28;60251;-69
2023/10/04 12:32:08;;;;;;;0.90;0.80;;;;;;;;;;5000329;28;61044;-68
2023/10/04 12:34:36;;;;;;;4.33;0.90;;;;;;;;;;4999832;28;58533;-69
2023/10/04 12:37:02;;;;;;;2.25;1.50;;;;;;;;;;4999585;28;58571;-68
2023/10/04 12:39:28;;;;;;;4.75;0.80;;;;;;;;;;5001476;28;59487;-69
2023/10/04 12:41:55;;;;;;;1.45;0.90;;;;;;;;;;4999726;28;58902;-66
2023/10/04 12:44:20;;;;;;;3.67;1.83;;;;;;;;;;5003025;28;58774;-66
2023/10/04 12:46:47;;;;;;;3.30;1.47;;;;;;;;;;5001363;28;61596;-66
2023/10/04 12:49:12;;;;;;;2.85;0.88;;;;;;;;;;4998103;28;59829;-66
2023/10/04 12:51:37;;;;;;;1.55;0.80;;;;;;;;;;5003453;28;58534;-66
2023/10/04 12:54:03;;;;;;;2.63;0.80;;;;;;;;;;5000840;28;60767;-66
2023/10/04 12:56:28;;;;;;;2.70;1.27;;;;;;;;;;5003083;28;58527;-66
2023/10/04 12:58:54;;;;;;;3.23;1.00;;;;;;;;;;5002684;28;58401;-66
2023/10/04 13:01:19;;;;;;;4.00;1.00;;;;;;;;;;5000172;28;59983;-66
2023/10/04 13:03:45;;;;;;;5.05;1.23;;;;;;;;;;5002016;28;58486;-66
2023/10/04 13:06:14;;;;;;;3.03;1.25;;;;;;;;;;5002235;28;59303;-66
2023/10/04 13:08:39;;;;;;;2.30;0.80;;;;;;;;;;5001774;28;59042;-66
2023/10/04 13:11:05;;;;;;;2.63;0.93;;;;;;;;;;5000231;28;58464;-67
2023/10/04 13:13:30;;;;;;;2.80;1.58;;;;;;;;;;5002848;28;60990;-67
2023/10/04 13:15:56;;;;;;;2.50;1.00;;;;;;;;;;5003339;28;59011;-66
2023/10/04 13:18:21;;;;;;;1.13;0.87;;;;;;;;;;5004741;28;58484;-66
2023/10/04 13:20:46;;;;;;;2.00;1.20;;;;;;;;;;5004915;28;59219;-66
2023/10/04 13:23:12;;;;;;;3.17;1.30;;;;;;;;;;5005358;28;58581;-66
2023/10/04 13:25:37;;;;;;;1.40;0.88;;;;;;;;;;5005724;28;60583;-66
2023/10/04 13:28:05;;;;;;;1.63;0.70;;;;;;;;;;5004303;28;59233;-67
2023/10/04 13:30:31;;;;;;;2.13;1.77;;;;;;;;;;5004995;28;58454;-66
2023/10/04 13:32:57;;;;;;;1.00;0.90;;;;;;;;;;5003508;28;61091;-66
2023/10/04 13:35:23;;;;;;;2.38;1.50;;;;;;;;;;5005733;28;58532;-66
2023/10/04 13:37:52;;;;;;;2.10;0.90;;;;;;;;;;5004632;28;60360;-66
2023/10/04 13:40:20;;;;;;;1.58;1.25;;;;;;;;;;5004529;28;59266;-67
2023/10/04 13:42:45;;;;;;;1.33;0.90;;;;;;;;;;5004581;28;58372;-66
2023/10/04 13:45:13;;;;;;;2.28;1.55;;;;;;;;;;5005229;28;59806;-66
2023/10/04 13:47:38;;;;;;;1.95;1.60;;;;;;;;;;5003505;28;59459;-66
2023/10/04 13:50:05;;;;;;;1.58;1.00;;;;;;;;;;5005028;28;58732;-66
2023/10/04 13:52:30;;;;;;;1.92;0.65;;;;;;;;;;5002183;28;58471;-68
2023/10/04 13:54:55;;;;;;;2.37;1.50;;;;;;;;;;5003408;28;60817;-66
2023/10/04 13:57:20;;;;;;;3.58;1.67;;;;;;;;;;5003419;28;58465;-66
2023/10/04 13:59:46;;;;;;;2.83;1.00;;;;;;;;;;5004323;28;60093;-66
2023/10/04 14:02:11;;;;;;;1.17;0.90;;;;;;;;;;5004438;28;58388;-65
2023/10/04 14:04:36;;;;;;;2.80;1.33;;;;;;;;;;5004141;28;58619;-69
2023/10/04 14:07:02;;;;;;;1.70;1.58;;;;;;;;;;5002183;28;58553;-63
2023/10/04 14:09:28;;;;;;;6.22;1.48;;;;;;;;;;5002350;28;58517;-66
2023/10/04 14:11:54;;;;;;;4.00;1.30;;;;;;;;;;5003602;28;58603;-68
2023/10/04 14:14:19;;;;;;;2.88;1.02;;;;;;;;;;5004556;28;58504;-67
2023/10/04 14:16:45;;;;;;;11.52;1.38;;;;;;;;;;5005263;28;58381;-69
2023/10/04 14:19:11;;;;;;;4.55;1.30;;;;;;;;;;5002736;28;58980;-70
2023/10/04 14:21:37;;;;;;;7.88;2.13;;;;;;;;;;5004091;28;58345;-67
2023/10/04 14:24:03;;;;;;;6.45;1.98;;;;;;;;;;5001878;28;59463;-71
2023/10/04 14:26:28;;;;;;;8.00;2.90;;;;;;;;;;5004201;28;60071;-71
2023/10/04 14:28:53;;;;;;;3.92;2.08;;;;;;;;;;5002445;28;58402;-70
2023/10/04 14:31:22;;;;;;;7.80;1.40;;;;;;;;;;5002555;28;59303;-70
2023/10/04 14:33:48;;;;;;;4.85;1.75;;;;;;;;;;5002664;28;59891;-72
2023/10/04 14:36:14;;;;;;;3.03;1.98;;;;;;;;;;5003192;28;58568;-70
2023/10/04 14:38:39;;;;;;;5.13;1.55;;;;;;;;;;5005229;28;58790;-70